createdAt,value
2022-09-07T00:01:16.586Z,13.70
2022-09-07T00:03:19.471Z,14.13
2022-09-07T00:05:21.860Z,14.23
2022-09-07T00:07:23.971Z,14.57
2022-09-07T00:09:26.176Z,15.10
2022-09-07T00:11:28.860Z,14.60
2022-09-07T00:13:33.280Z,14.17
2022-09-07T00:15:39.472Z,14.10
2022-09-07T00:17:42.058Z,14.37
2022-09-07T00:19:44.209Z,13.67
2022-09-07T00:21:46.451Z,14.20
2022-09-07T00:23:49.802Z,13.00
2022-09-07T00:25:54.082Z,13.70
2022-09-07T00:27:56.480Z,13.20
2022-09-07T00:29:58.588Z,13.83
2022-09-07T00:32:00.753Z,13.90
2022-09-07T00:34:03.085Z,14.70
2022-09-07T00:36:05.727Z,14.37
2022-09-07T00:38:08.643Z,13.87
2022-09-07T00:40:10.981Z,14.33
2022-09-07T00:42:13.131Z,14.80
2022-09-07T00:44:43.275Z,14.60
2022-09-07T00:46:46.975Z,14.27
2022-09-07T00:49:08.224Z,13.77
2022-09-07T00:51:15.504Z,13.53
2022-09-07T00:53:27.421Z,14.00
2022-09-07T00:55:30.375Z,13.70
2022-09-07T00:57:33.076Z,12.50
2022-09-07T00:59:39.841Z,13.50
2022-09-07T01:01:42.047Z,12.67
2022-09-07T01:03:48.878Z,13.00
2022-09-07T01:05:57.656Z,13.40
2022-09-07T01:07:59.859Z,14.17
2022-09-07T01:10:02.152Z,14.00
2022-09-07T01:12:05.463Z,13.60
2022-09-07T01:14:09.518Z,13.23
2022-09-07T01:16:21.574Z,12.80
2022-09-07T01:18:32.241Z,13.20
2022-09-07T01:21:03.697Z,13.43
2022-09-07T01:23:20.074Z,13.70
2022-09-07T01:25:32.555Z,13.97
2022-09-07T01:27:40.705Z,12.70
2022-09-07T01:29:48.867Z,13.30
2022-09-07T01:32:05.384Z,12.90
2022-09-07T01:34:23.341Z,12.60
2022-09-07T01:36:40.740Z,13.80
2022-09-07T01:38:55.976Z,12.40
2022-09-07T01:41:14.325Z,13.57
2022-09-07T01:43:29.195Z,13.40
2022-09-07T01:45:34.570Z,12.07
2022-09-07T01:47:54.312Z,12.13
2022-09-07T01:50:02.713Z,11.50
2022-09-07T01:52:38.385Z,12.00
2022-09-07T01:55:01.424Z,11.77
2022-09-07T01:57:10.402Z,11.77
2022-09-07T01:59:33.005Z,11.63
2022-09-07T02:01:50.285Z,13.00
2022-09-07T02:03:59.480Z,12.57
2022-09-07T02:06:14.185Z,11.33
2022-09-07T02:08:22.180Z,12.67
2022-09-07T02:10:33.309Z,11.87
2022-09-07T02:13:06.874Z,11.93
2022-09-07T02:15:17.993Z,11.63
2022-09-07T02:17:24.678Z,14.93
2022-09-07T02:19:30.354Z,11.83
2022-09-07T02:21:40.000Z,12.57
2022-09-07T02:23:48.510Z,12.90
2022-09-07T02:26:01.676Z,12.80
2022-09-07T02:28:15.636Z,13.27
2022-09-07T02:30:17.884Z,12.07
2022-09-07T02:32:20.360Z,12.47
2022-09-07T02:34:22.570Z,12.93
2022-09-07T02:36:26.699Z,12.37
2022-09-07T02:38:30.418Z,12.23
2022-09-07T02:40:32.820Z,12.63
2022-09-07T02:42:35.727Z,12.00
2022-09-07T02:44:39.853Z,12.50
2022-09-07T02:46:50.001Z,11.80
2022-09-07T02:49:34.539Z,11.47
2022-09-07T02:52:04.740Z,11.80
2022-09-07T02:54:15.894Z,11.27
2022-09-07T02:56:48.135Z,12.20
2022-09-07T02:59:04.468Z,11.83
2022-09-07T03:01:15.908Z,11.10
2022-09-07T03:03:26.123Z,11.73
2022-09-07T03:05:32.257Z,11.43
2022-09-07T03:07:49.484Z,10.87
2022-09-07T03:09:53.336Z,13.20
2022-09-07T03:11:55.507Z,12.00
2022-09-07T03:14:20.586Z,11.80
2022-09-07T03:16:22.776Z,10.73
2022-09-07T03:18:26.537Z,11.03
2022-09-07T03:20:28.683Z,11.27
2022-09-07T03:22:33.277Z,12.20
2022-09-07T03:24:36.741Z,12.00
2022-09-07T03:26:41.979Z,10.80
2022-09-07T03:28:44.091Z,11.50
2022-09-07T03:30:47.525Z,11.10
2022-09-07T03:32:49.785Z,11.77
2022-09-07T03:34:52.134Z,12.13
2022-09-07T03:36:54.254Z,12.23
2022-09-07T03:38:56.581Z,12.00
2022-09-07T03:41:03.292Z,12.40
2022-09-07T03:43:05.419Z,12.60
2022-09-07T03:45:08.496Z,11.20
2022-09-07T03:47:10.573Z,11.77
2022-09-07T03:49:12.711Z,11.90
2022-09-07T03:51:16.861Z,11.70
2022-09-07T03:53:19.019Z,11.60
2022-09-07T03:55:21.803Z,13.00
2022-09-07T03:57:23.964Z,11.70
2022-09-07T03:59:26.271Z,11.13
2022-09-07T04:01:28.514Z,12.07
2022-09-07T04:03:30.657Z,11.47
2022-09-07T04:05:32.768Z,10.50
2022-09-07T04:07:34.932Z,10.20
2022-09-07T04:09:37.057Z,11.40
2022-09-07T04:11:40.509Z,11.50
2022-09-07T04:13:43.237Z,11.00
2022-09-07T04:15:45.571Z,10.87
2022-09-07T04:17:48.302Z,9.97
2022-09-07T04:19:50.445Z,10.10
2022-09-07T04:21:52.927Z,10.10
2022-09-07T04:23:55.191Z,10.97
2022-09-07T04:25:57.360Z,10.60
2022-09-07T04:27:59.468Z,10.00
2022-09-07T04:30:01.663Z,9.60
2022-09-07T04:32:03.808Z,10.90
2022-09-07T04:34:06.584Z,9.70
2022-09-07T04:36:09.094Z,10.70
2022-09-07T04:38:15.346Z,10.30
2022-09-07T04:40:17.594Z,9.93
2022-09-07T04:42:19.722Z,10.63
2022-09-07T04:44:21.836Z,8.77
2022-09-07T04:46:31.315Z,10.00
2022-09-07T04:48:33.596Z,10.33
2022-09-07T04:50:35.766Z,9.67
2022-09-07T04:52:37.912Z,9.17
2022-09-07T04:54:40.051Z,10.00
2022-09-07T04:56:42.153Z,10.10
2022-09-07T04:58:44.967Z,9.70
2022-09-07T05:00:47.132Z,9.80
2022-09-07T05:02:49.301Z,9.40
2022-09-07T05:04:51.781Z,9.50
2022-09-07T05:06:54.554Z,10.43
2022-09-07T05:08:58.363Z,10.90
2022-09-07T05:11:00.474Z,9.27
2022-09-07T05:13:02.962Z,9.70
2022-09-07T05:15:05.651Z,10.07
2022-09-07T05:17:07.844Z,9.50
2022-09-07T05:19:13.970Z,9.40
2022-09-07T05:21:18.956Z,9.70
2022-09-07T05:23:22.248Z,10.13
2022-09-07T05:25:24.480Z,10.00
2022-09-07T05:27:26.581Z,11.13
2022-09-07T05:31:50.979Z,9.17
2022-09-07T05:36:17.763Z,9.90
2022-09-07T05:38:19.927Z,9.90
2022-09-07T05:40:22.662Z,8.97
2022-09-07T05:42:24.868Z,9.33
2022-09-07T05:46:44.769Z,9.60
2022-09-07T05:48:47.154Z,8.90
2022-09-07T05:50:53.156Z,10.47
2022-09-07T05:52:55.279Z,10.50
2022-09-07T05:55:07.712Z,8.63
2022-09-07T05:57:15.551Z,9.47
2022-09-07T05:59:17.938Z,11.10
2022-09-07T06:01:20.043Z,9.60
2022-09-07T06:03:22.392Z,9.30
2022-09-07T06:05:24.676Z,9.47
2022-09-07T06:07:26.806Z,9.37
2022-09-07T06:09:30.644Z,8.90
2022-09-07T06:11:32.971Z,8.80
2022-09-07T06:13:35.478Z,8.77
2022-09-07T06:15:37.602Z,8.60
2022-09-07T06:17:40.149Z,8.27
2022-09-07T06:19:42.327Z,9.07
2022-09-07T06:21:44.526Z,9.00
2022-09-07T06:23:47.372Z,9.30
2022-09-07T06:25:49.904Z,9.20
2022-09-07T06:27:54.034Z,8.97
2022-09-07T06:29:56.269Z,7.83
2022-09-07T06:34:20.545Z,8.87
2022-09-07T06:36:29.688Z,8.00
2022-09-07T06:38:33.594Z,8.00
2022-09-07T06:40:35.780Z,8.90
2022-09-07T06:42:38.798Z,8.67
2022-09-07T06:44:41.007Z,8.60
2022-09-07T06:49:05.244Z,8.50
2022-09-07T06:51:13.747Z,9.17
2022-09-07T06:55:33.445Z,8.63
2022-09-07T06:57:35.594Z,8.03
2022-09-07T06:59:38.222Z,9.27
2022-09-07T07:01:40.360Z,8.37
2022-09-07T07:03:43.099Z,8.30
2022-09-07T07:05:52.702Z,9.20
2022-09-07T07:07:56.392Z,9.00
2022-09-07T07:09:58.579Z,7.87
2022-09-07T07:12:00.764Z,8.70
2022-09-07T07:14:03.595Z,8.30
2022-09-07T07:16:08.199Z,8.80
2022-09-07T07:18:30.947Z,8.80
2022-09-07T07:20:35.318Z,9.43
2022-09-07T07:22:53.009Z,8.53
2022-09-07T07:24:55.173Z,8.77
2022-09-07T07:26:57.587Z,8.50
2022-09-07T07:31:10.564Z,9.10
2022-09-07T07:33:14.220Z,8.77
2022-09-07T07:35:16.466Z,7.93
2022-09-07T07:37:18.811Z,8.27
2022-09-07T07:42:03.008Z,9.70
2022-09-07T07:44:05.981Z,9.00
2022-09-07T07:46:08.666Z,10.20
2022-09-07T07:48:12.143Z,8.83
2022-09-07T07:55:00.976Z,9.03
2022-09-07T07:57:04.273Z,8.73
2022-09-07T07:59:06.582Z,8.30
2022-09-07T08:01:11.636Z,9.10
2022-09-07T08:03:13.786Z,9.97
2022-09-07T08:05:17.231Z,8.97
2022-09-07T08:07:19.559Z,9.03
2022-09-07T08:09:21.642Z,8.87
2022-09-07T08:11:23.900Z,9.50
2022-09-07T08:13:26.115Z,8.30
2022-09-07T08:15:28.207Z,8.30
2022-09-07T08:17:30.316Z,8.60
2022-09-07T08:19:32.424Z,8.53
2022-09-07T08:21:34.792Z,8.23
2022-09-07T08:23:37.213Z,8.27
2022-09-07T08:25:39.667Z,9.27
2022-09-07T08:27:41.768Z,9.37
2022-09-07T08:29:43.823Z,8.57
2022-09-07T08:31:46.058Z,9.00
2022-09-07T08:33:48.502Z,9.13
2022-09-07T08:35:56.478Z,9.10
2022-09-07T08:37:58.589Z,8.57
2022-09-07T08:40:00.751Z,9.40
2022-09-07T08:42:13.411Z,9.03
2022-09-07T08:44:18.570Z,10.30
2022-09-07T08:46:58.163Z,9.70
2022-09-07T08:49:01.318Z,10.20
2022-09-07T08:51:10.892Z,8.23
2022-09-07T08:53:14.632Z,10.97
2022-09-07T08:55:21.822Z,10.00
2022-09-07T08:57:30.176Z,10.40
2022-09-07T08:59:46.547Z,9.60
2022-09-07T09:04:15.789Z,8.77
2022-09-07T09:06:39.076Z,9.67
2022-09-07T09:08:59.206Z,9.77
2022-09-07T09:11:06.187Z,9.40
2022-09-07T09:13:19.857Z,10.20
2022-09-07T09:15:26.524Z,10.10
2022-09-07T09:17:48.226Z,9.90
2022-09-07T09:19:59.178Z,9.83
2022-09-07T09:22:14.667Z,10.13
2022-09-07T09:24:19.345Z,10.30
2022-09-07T09:26:24.436Z,9.20
2022-09-07T09:28:28.907Z,9.87
2022-09-07T09:30:33.918Z,11.60
2022-09-07T09:32:41.690Z,11.60
2022-09-07T09:35:00.906Z,9.83
2022-09-07T09:37:03.017Z,10.80
2022-09-07T09:39:25.176Z,10.03
2022-09-07T09:41:36.555Z,10.77
2022-09-07T09:43:47.679Z,10.53
2022-09-07T09:48:28.434Z,10.20
2022-09-07T09:53:00.811Z,8.80
2022-09-07T09:55:33.247Z,10.37
2022-09-07T10:00:23.583Z,9.60
2022-09-07T10:04:54.713Z,8.70
2022-09-07T10:07:04.499Z,9.63
2022-09-07T10:09:11.912Z,8.60
2022-09-07T10:11:15.554Z,8.40
2022-09-07T10:13:29.425Z,9.70
2022-09-07T10:15:40.569Z,9.63
2022-09-07T10:17:43.853Z,8.57
2022-09-07T10:19:45.927Z,8.77
2022-09-07T10:21:55.910Z,9.23
2022-09-07T10:24:23.423Z,8.77
2022-09-07T10:26:37.404Z,8.90
2022-09-07T10:31:11.161Z,8.60
2022-09-07T10:33:22.602Z,8.20
2022-09-07T10:35:30.925Z,8.50
2022-09-07T10:38:00.931Z,8.90
2022-09-07T10:40:06.950Z,8.77
2022-09-07T10:42:09.203Z,8.70
2022-09-07T10:44:40.191Z,9.33
2022-09-07T10:47:06.145Z,8.93
2022-09-07T10:49:14.235Z,9.03
2022-09-07T10:51:26.710Z,10.07
2022-09-07T10:54:29.292Z,9.30
2022-09-07T10:56:26.253Z,8.80
2022-09-07T10:59:19.933Z,8.83
2022-09-07T11:01:37.000Z,8.83
2022-09-07T11:03:51.922Z,9.23
2022-09-07T11:05:57.165Z,8.30
2022-09-07T11:08:22.845Z,9.00
2022-09-07T11:10:32.606Z,8.60
2022-09-07T11:12:36.918Z,8.80
2022-09-07T11:14:43.414Z,8.90
2022-09-07T11:16:52.439Z,8.80
2022-09-07T11:21:58.495Z,9.13
2022-09-07T11:24:11.218Z,8.70
2022-09-07T11:26:20.714Z,9.13
2022-09-07T11:28:38.513Z,7.73
2022-09-07T11:30:45.815Z,9.17
2022-09-07T11:33:14.221Z,9.10
2022-09-07T11:35:28.994Z,8.77
2022-09-07T11:37:41.714Z,8.80
2022-09-07T11:39:52.956Z,9.57
2022-09-07T11:42:42.899Z,9.63
2022-09-07T11:44:41.326Z,8.97
2022-09-07T11:46:43.920Z,8.73
2022-09-07T11:48:58.682Z,8.60
2022-09-07T11:51:09.385Z,8.20
2022-09-07T11:53:23.325Z,8.00
2022-09-07T11:55:28.495Z,8.33
2022-09-07T11:57:50.428Z,8.67
2022-09-07T12:00:00.796Z,7.67
2022-09-07T12:02:57.710Z,8.27
2022-09-07T12:05:05.312Z,7.67
2022-09-07T12:07:33.616Z,7.87
2022-09-07T12:09:47.970Z,7.87
2022-09-07T12:12:08.143Z,8.43
2022-09-07T12:14:15.998Z,7.87
2022-09-07T12:16:36.363Z,8.30
2022-09-07T12:18:44.269Z,7.63
2022-09-07T12:20:47.807Z,7.30
2022-09-07T12:23:04.864Z,7.50
2022-09-07T12:25:09.336Z,7.50
2022-09-07T12:27:11.377Z,7.93
2022-09-07T12:29:22.845Z,7.47
2022-09-07T12:31:57.262Z,7.17
2022-09-07T12:34:31.176Z,8.60
2022-09-07T12:36:33.050Z,7.80
2022-09-07T12:39:06.053Z,7.43
2022-09-07T12:41:26.071Z,7.70
2022-09-07T12:43:28.050Z,7.83
2022-09-07T12:45:29.949Z,7.00
2022-09-07T12:47:31.884Z,7.40
2022-09-07T12:49:49.450Z,7.13
2022-09-07T12:52:31.560Z,7.90
2022-09-07T12:55:04.387Z,7.17
2022-09-07T12:57:34.423Z,7.97
2022-09-07T12:59:58.546Z,7.13
2022-09-07T13:02:50.085Z,7.07
2022-09-07T13:05:18.645Z,7.20
2022-09-07T13:08:08.340Z,7.50
2022-09-07T13:10:27.855Z,7.60
2022-09-07T13:15:33.523Z,7.47
2022-09-07T13:17:36.229Z,7.70
2022-09-07T13:19:50.397Z,7.80
2022-09-07T13:21:52.393Z,7.70
2022-09-07T13:27:00.945Z,6.70
2022-09-07T13:29:04.485Z,7.93
2022-09-07T13:31:17.831Z,7.60
2022-09-07T13:33:26.049Z,7.67
2022-09-07T13:35:29.434Z,6.80
2022-09-07T13:37:47.494Z,7.07
2022-09-07T13:39:54.791Z,7.20
2022-09-07T13:41:58.516Z,7.70
2022-09-07T13:44:02.356Z,7.03
2022-09-07T13:46:14.249Z,6.60
2022-09-07T13:48:35.768Z,6.90
2022-09-07T13:50:59.009Z,6.33
2022-09-07T13:53:03.766Z,7.97
2022-09-07T13:55:05.719Z,7.23
2022-09-07T13:57:29.095Z,7.87
2022-09-07T13:59:34.084Z,6.60
2022-09-07T14:01:43.707Z,7.80
2022-09-07T14:03:56.143Z,7.00
2022-09-07T14:06:22.990Z,6.90
2022-09-07T14:08:26.769Z,6.50
2022-09-07T14:10:29.174Z,6.90
2022-09-07T14:12:31.289Z,8.67
2022-09-07T14:14:33.348Z,8.27
2022-09-07T14:16:35.915Z,7.00
2022-09-07T14:18:39.689Z,7.30
2022-09-07T14:20:59.630Z,7.57
2022-09-07T14:23:01.625Z,7.63
2022-09-07T14:25:05.790Z,6.60
2022-09-07T14:27:23.364Z,6.90
2022-09-07T14:29:30.136Z,6.90
2022-09-07T14:31:32.335Z,7.30
2022-09-07T14:33:34.581Z,7.30
2022-09-07T14:35:40.543Z,8.33
2022-09-07T14:37:42.866Z,7.53
2022-09-07T14:39:48.097Z,6.97
2022-09-07T14:41:50.918Z,7.00
2022-09-07T14:43:58.356Z,7.23
2022-09-07T14:46:22.249Z,7.33
2022-09-07T14:48:31.493Z,6.23
2022-09-07T14:50:38.980Z,7.60
2022-09-07T14:53:33.315Z,7.13
2022-09-07T14:55:39.148Z,6.40
2022-09-07T14:57:41.367Z,7.50
2022-09-07T14:59:45.598Z,7.20
2022-09-07T15:01:47.582Z,6.90
2022-09-07T15:03:49.530Z,7.07
2022-09-07T15:05:51.616Z,6.87
2022-09-07T15:07:55.149Z,7.87
2022-09-07T15:10:16.123Z,8.50
2022-09-07T15:12:27.255Z,7.10
2022-09-07T15:14:34.873Z,6.47
2022-09-07T15:16:42.564Z,6.40
2022-09-07T15:19:05.697Z,5.93
2022-09-07T15:21:11.018Z,6.33
2022-09-07T15:23:17.935Z,5.93
2022-09-07T15:25:19.826Z,5.80
2022-09-07T15:27:27.606Z,5.33
2022-09-07T15:29:30.364Z,5.30
2022-09-07T15:31:43.333Z,5.73
2022-09-07T15:33:47.704Z,5.00
2022-09-07T15:35:50.567Z,5.37
2022-09-07T15:40:20.635Z,4.30
2022-09-07T15:44:44.734Z,4.93
2022-09-07T15:49:12.510Z,5.77
2022-09-07T15:55:58.562Z,5.97
2022-09-07T15:58:11.490Z,5.80
2022-09-07T16:00:14.385Z,6.43
2022-09-07T16:04:39.301Z,6.13
2022-09-07T16:06:41.473Z,5.40
2022-09-07T16:08:43.344Z,6.90
2022-09-07T16:10:45.834Z,6.60
2022-09-07T16:13:09.934Z,5.80
2022-09-07T16:15:12.657Z,6.33
2022-09-07T16:19:41.114Z,6.33
2022-09-07T16:21:43.217Z,6.30
2022-09-07T16:23:49.258Z,7.33
2022-09-07T16:25:59.458Z,6.90
2022-09-07T16:28:01.473Z,6.40
2022-09-07T16:30:05.241Z,7.10
2022-09-07T16:34:30.091Z,6.68
2022-09-07T16:36:32.082Z,7.17
2022-09-07T16:38:49.586Z,7.33
2022-09-07T16:40:51.878Z,7.97
2022-09-07T16:42:53.832Z,7.50
2022-09-07T16:46:02.587Z,8.30
2022-09-07T16:47:17.776Z,8.97
2022-09-07T16:49:19.769Z,7.90
2022-09-07T16:51:22.989Z,7.40
2022-09-07T16:53:24.928Z,7.50
2022-09-07T16:55:27.041Z,7.57
2022-09-07T16:58:35.443Z,7.70
2022-09-07T16:59:50.975Z,8.10
2022-09-07T17:01:53.731Z,7.70
2022-09-07T17:03:56.200Z,8.77
2022-09-07T17:06:03.867Z,8.63
2022-09-07T17:08:07.237Z,9.47
2022-09-07T17:10:10.702Z,11.33
2022-09-07T17:12:13.063Z,13.30
2022-09-07T17:14:15.683Z,10.70
2022-09-07T17:16:22.692Z,10.47
2022-09-07T17:20:58.377Z,11.23
2022-09-07T17:23:01.558Z,10.47
2022-09-07T17:25:03.779Z,8.73
2022-09-07T17:27:05.773Z,10.13
2022-09-07T17:29:07.786Z,9.53
2022-09-07T17:33:45.447Z,10.23
2022-09-07T17:35:47.711Z,9.80
2022-09-07T17:37:49.715Z,9.50
2022-09-07T17:39:51.938Z,8.70
2022-09-07T17:41:54.603Z,9.23
2022-09-07T17:43:57.938Z,10.00
2022-09-07T17:46:22.945Z,9.50
2022-09-07T17:48:25.024Z,9.30
2022-09-07T17:50:26.953Z,9.80
2022-09-07T17:52:28.953Z,9.27
2022-09-07T17:54:30.966Z,8.90
2022-09-07T17:56:33.790Z,9.93
2022-09-07T17:58:40.464Z,9.03
2022-09-07T18:00:42.846Z,8.40
2022-09-07T18:02:46.392Z,9.23
2022-09-07T18:04:50.978Z,9.30
2022-09-07T18:06:54.075Z,10.47
2022-09-07T18:08:56.677Z,9.67
2022-09-07T18:13:35.246Z,10.50
2022-09-07T18:15:40.135Z,10.97
2022-09-07T18:17:42.323Z,10.27
2022-09-07T18:19:44.733Z,10.53
2022-09-07T18:21:48.021Z,10.70
2022-09-07T18:23:57.283Z,11.23
2022-09-07T18:26:00.671Z,9.73
2022-09-07T18:30:25.909Z,10.30
2022-09-07T18:32:27.832Z,11.37
2022-09-07T18:34:31.770Z,10.47
2022-09-07T18:36:35.936Z,11.40
2022-09-07T18:38:38.075Z,11.70
2022-09-07T18:40:40.608Z,12.17
2022-09-07T18:42:43.053Z,12.00
2022-09-07T18:47:17.533Z,12.10
2022-09-07T18:49:23.522Z,12.90
2022-09-07T18:51:27.451Z,12.77
2022-09-07T18:53:29.755Z,13.40
2022-09-07T18:55:32.848Z,13.07
2022-09-07T18:57:36.177Z,12.67
2022-09-07T18:59:38.288Z,12.17
2022-09-07T19:01:40.289Z,12.83
2022-09-07T19:03:43.403Z,11.80
2022-09-07T19:05:49.983Z,12.37
2022-09-07T19:07:52.566Z,12.80
2022-09-07T19:09:54.839Z,13.03
2022-09-07T19:11:57.084Z,13.70
2022-09-07T19:14:00.794Z,13.43
2022-09-07T19:16:08.163Z,14.30
2022-09-07T19:18:10.610Z,14.67
2022-09-07T19:20:12.623Z,13.90
2022-09-07T19:22:14.594Z,14.80
2022-09-07T19:24:18.295Z,15.37
2022-09-07T19:26:20.264Z,14.03
2022-09-07T19:28:22.420Z,16.23
2022-09-07T19:30:24.382Z,15.80
2022-09-07T19:32:26.295Z,17.27
2022-09-07T19:34:28.300Z,15.97
2022-09-07T19:36:32.710Z,14.60
2022-09-07T19:38:34.704Z,15.60
2022-09-07T19:40:36.753Z,16.70
2022-09-07T19:42:38.966Z,16.00
2022-09-07T19:44:40.937Z,16.30
2022-09-07T19:46:44.445Z,17.20
2022-09-07T19:48:46.628Z,16.30
2022-09-07T19:50:50.418Z,16.80
2022-09-07T19:52:52.339Z,17.67
2022-09-07T19:54:54.677Z,17.90
2022-09-07T19:56:56.535Z,18.33
2022-09-07T19:58:58.724Z,17.90
2022-09-07T20:01:06.717Z,16.80
2022-09-07T20:03:10.513Z,16.93
2022-09-07T20:05:14.597Z,17.33
2022-09-07T20:07:16.747Z,17.10
2022-09-07T20:09:19.909Z,17.57
2022-09-07T20:11:22.139Z,18.70
2022-09-07T20:13:24.073Z,18.73
2022-09-07T20:15:26.391Z,19.80
2022-09-07T20:17:33.056Z,18.97
2022-09-07T20:19:37.143Z,17.73
2022-09-07T20:21:39.104Z,16.30
2022-09-07T20:23:41.482Z,15.77
2022-09-07T20:25:43.663Z,17.40
2022-09-07T20:27:45.633Z,17.33
2022-09-07T20:29:47.606Z,18.80
2022-09-07T20:31:49.770Z,17.40
2022-09-07T20:33:51.970Z,16.50
2022-09-07T20:35:53.972Z,15.47
2022-09-07T20:37:55.867Z,17.07
2022-09-07T20:39:57.817Z,16.63
2022-09-07T20:41:59.754Z,16.40
2022-09-07T20:44:03.950Z,17.00
2022-09-07T20:46:06.064Z,15.80
2022-09-07T20:48:08.016Z,17.37
2022-09-07T20:50:10.389Z,18.90
2022-09-07T20:52:12.324Z,18.70
2022-09-07T20:54:14.263Z,17.43
2022-09-07T20:56:17.287Z,19.50
2022-09-07T20:58:19.148Z,17.83
2022-09-07T21:00:21.099Z,17.80
2022-09-07T21:02:23.097Z,15.50
2022-09-07T21:04:26.438Z,17.67
2022-09-07T21:06:29.417Z,16.47
2022-09-07T21:08:35.232Z,18.40
2022-09-07T21:10:41.596Z,17.13
2022-09-07T21:12:44.030Z,17.00
2022-09-07T21:14:46.858Z,16.40
2022-09-07T21:16:48.798Z,17.37
2022-09-07T21:18:55.630Z,17.03
2022-09-07T21:21:18.737Z,16.60
2022-09-07T21:23:20.085Z,15.27
2022-09-07T21:25:22.130Z,15.13
2022-09-07T21:27:24.457Z,14.00
2022-09-07T21:29:26.491Z,14.40
2022-09-07T21:31:29.895Z,13.70
2022-09-07T21:33:33.751Z,13.53
2022-09-07T21:35:35.796Z,12.17
2022-09-07T21:37:37.742Z,12.80
2022-09-07T21:39:39.791Z,12.47
2022-09-07T21:41:42.983Z,11.87
2022-09-07T21:43:45.051Z,12.67
2022-09-07T21:45:46.948Z,13.33
2022-09-07T21:47:48.884Z,14.80
2022-09-07T21:49:51.311Z,15.07
2022-09-07T21:51:53.247Z,15.97
2022-09-07T21:53:56.959Z,14.53
2022-09-07T21:56:00.518Z,14.33
2022-09-07T21:58:02.421Z,15.73
2022-09-07T22:00:06.057Z,15.77
2022-09-07T22:02:10.759Z,15.33
2022-09-07T22:04:13.522Z,15.23
2022-09-07T22:06:15.496Z,14.33
2022-09-07T22:08:17.749Z,15.73
2022-09-07T22:10:19.721Z,15.30
2022-09-07T22:12:21.819Z,16.20
2022-09-07T22:14:23.762Z,15.33
2022-09-07T22:16:26.002Z,16.43
2022-09-07T22:18:30.280Z,15.30
2022-09-07T22:20:33.278Z,15.47
2022-09-07T22:22:35.538Z,16.00
2022-09-07T22:24:37.823Z,16.57
2022-09-07T22:26:39.785Z,16.30
2022-09-07T22:28:41.769Z,16.17
2022-09-07T22:30:43.699Z,17.33
2022-09-07T22:32:47.680Z,16.40
2022-09-07T22:34:49.677Z,16.60
2022-09-07T22:36:51.587Z,15.17
2022-09-07T22:38:56.188Z,15.70
2022-09-07T22:41:06.525Z,15.73
2022-09-07T22:43:08.422Z,15.13
2022-09-07T22:45:10.553Z,15.33
2022-09-07T22:47:12.472Z,15.37
2022-09-07T22:49:15.914Z,15.37
2022-09-07T22:51:17.882Z,15.73
2022-09-07T22:53:20.592Z,17.40
2022-09-07T22:55:22.529Z,15.83
2022-09-07T22:57:24.595Z,16.93
2022-09-07T22:59:26.732Z,15.00
2022-09-07T23:01:30.042Z,15.57
2022-09-07T23:03:33.706Z,16.87
2022-09-07T23:05:36.942Z,19.13
2022-09-07T23:07:38.925Z,18.97
2022-09-07T23:09:40.852Z,19.37
2022-09-07T23:11:43.736Z,18.13
2022-09-07T23:13:45.707Z,18.20
2022-09-07T23:15:48.513Z,17.80
2022-09-07T23:17:51.014Z,18.17
2022-09-07T23:19:53.124Z,17.90
2022-09-07T23:21:55.239Z,17.57
2022-09-07T23:23:58.636Z,16.37
2022-09-07T23:26:02.385Z,15.83
2022-09-07T23:28:05.314Z,15.87
2022-09-07T23:30:07.786Z,18.20
2022-09-07T23:32:09.777Z,17.97
2022-09-07T23:34:11.748Z,17.33
2022-09-07T23:36:13.767Z,18.83
2022-09-07T23:38:16.081Z,19.90
2022-09-07T23:40:19.184Z,21.67
2022-09-07T23:42:21.132Z,20.23
2022-09-07T23:44:23.262Z,18.57
2022-09-07T23:46:25.299Z,17.70
2022-09-07T23:48:27.768Z,17.07
2022-09-07T23:50:29.705Z,16.70
2022-09-07T23:52:32.280Z,18.10
2022-09-07T23:54:34.258Z,17.97
2022-09-07T23:56:37.936Z,17.40
2022-09-07T23:58:39.887Z,17.20
